sensor_id;sensor_type;location;lat;lon;timestamp;P1;durP1;ratioP1;P2;durP2;ratioP2
21761;SDS011;11203;50.870;20.682;2023-03-16T00:01:03;35.28;;;13.70;;
21761;SDS011;11203;50.870;20.682;2023-03-16T00:03:31;13.75;;;6.30;;
21761;SDS011;11203;50.870;20.682;2023-03-16T00:05:58;33.22;;;18.33;;
21761;SDS011;11203;50.870;20.682;2023-03-16T00:08:24;32.97;;;16.45;;
21761;SDS011;11203;50.870;20.682;2023-03-16T00:10:51;19.73;;;10.70;;
21761;SDS011;11203;50.870;20.682;2023-03-16T00:13:19;31.80;;;14.45;;
21761;SDS011;11203;50.870;20.682;2023-03-16T00:15:51;34.30;;;15.27;;
21761;SDS011;11203;50.870;20.682;2023-03-16T00:18:20;33.58;;;16.40;;
21761;SDS011;11203;50.870;20.682;2023-03-16T00:20:51;34.22;;;16.65;;
21761;SDS011;11203;50.870;20.682;2023-03-16T00:23:23;34.97;;;17.08;;
21761;SDS011;11203;50.870;20.682;2023-03-16T00:25:57;31.65;;;17.92;;
21761;SDS011;11203;50.870;20.682;2023-03-16T00:28:25;33.38;;;18.05;;
21761;SDS011;11203;50.870;20.682;2023-03-16T00:30:52;36.05;;;16.70;;
21761;SDS011;11203;50.870;20.682;2023-03-16T00:33:23;31.92;;;16.48;;
21761;SDS011;11203;50.870;20.682;2023-03-16T00:35:51;31.80;;;17.20;;
21761;SDS011;11203;50.870;20.682;2023-03-16T00:38:26;29.95;;;13.23;;
21761;SDS011;11203;50.870;20.682;2023-03-16T00:40:55;37.35;;;18.05;;
21761;SDS011;11203;50.870;20.682;2023-03-16T00:43:21;16.52;;;8.38;;
21761;SDS011;11203;50.870;20.682;2023-03-16T00:45:48;30.92;;;17.83;;
21761;SDS011;11203;50.870;20.682;2023-03-16T00:48:14;36.63;;;17.15;;
21761;SDS011;11203;50.870;20.682;2023-03-16T00:50:40;33.50;;;17.73;;
21761;SDS011;11203;50.870;20.682;2023-03-16T00:53:09;33.10;;;17.60;;
21761;SDS011;11203;50.870;20.682;2023-03-16T00:55:36;35.05;;;16.67;;
21761;SDS011;11203;50.870;20.682;2023-03-16T00:58:02;26.50;;;13.25;;
21761;SDS011;11203;50.870;20.682;2023-03-16T01:00:29;32.25;;;14.82;;
21761;SDS011;11203;50.870;20.682;2023-03-16T01:02:55;35.60;;;17.25;;
21761;SDS011;11203;50.870;20.682;2023-03-16T01:05:21;22.13;;;11.13;;
21761;SDS011;11203;50.870;20.682;2023-03-16T01:07:47;24.67;;;8.38;;
21761;SDS011;11203;50.870;20.682;2023-03-16T01:10:13;35.58;;;16.85;;
21761;SDS011;11203;50.870;20.682;2023-03-16T01:12:40;25.67;;;9.07;;
21761;SDS011;11203;50.870;20.682;2023-03-16T01:15:06;34.38;;;15.45;;
21761;SDS011;11203;50.870;20.682;2023-03-16T01:17:34;23.33;;;10.90;;
21761;SDS011;11203;50.870;20.682;2023-03-16T01:20:03;28.80;;;15.63;;
21761;SDS011;11203;50.870;20.682;2023-03-16T01:22:32;25.13;;;12.63;;
21761;SDS011;11203;50.870;20.682;2023-03-16T01:24:59;30.60;;;16.10;;
21761;SDS011;11203;50.870;20.682;2023-03-16T01:27:25;17.83;;;8.30;;
21761;SDS011;11203;50.870;20.682;2023-03-16T01:29:51;20.23;;;9.40;;
21761;SDS011;11203;50.870;20.682;2023-03-16T01:32:17;18.00;;;8.70;;
21761;SDS011;11203;50.870;20.682;2023-03-16T01:34:43;26.80;;;12.27;;
21761;SDS011;11203;50.870;20.682;2023-03-16T01:37:09;17.77;;;7.93;;
21761;SDS011;11203;50.870;20.682;2023-03-16T01:39:35;17.95;;;7.35;;
21761;SDS011;11203;50.870;20.682;2023-03-16T01:42:01;20.65;;;10.63;;
21761;SDS011;11203;50.870;20.682;2023-03-16T01:44:28;27.52;;;13.85;;
21761;SDS011;11203;50.870;20.682;2023-03-16T01:47:02;18.55;;;8.07;;
21761;SDS011;11203;50.870;20.682;2023-03-16T01:49:32;26.40;;;13.63;;
21761;SDS011;11203;50.870;20.682;2023-03-16T01:54:50;25.10;;;12.52;;
21761;SDS011;11203;50.870;20.682;2023-03-16T01:57:30;20.83;;;11.38;;
21761;SDS011;11203;50.870;20.682;2023-03-16T02:00:06;15.50;;;9.05;;
21761;SDS011;11203;50.870;20.682;2023-03-16T02:02:42;20.98;;;10.80;;
21761;SDS011;11203;50.870;20.682;2023-03-16T02:05:14;26.92;;;12.63;;
21761;SDS011;11203;50.870;20.682;2023-03-16T02:11:26;29.58;;;12.65;;
21761;SDS011;11203;50.870;20.682;2023-03-16T02:13:53;14.45;;;7.70;;
21761;SDS011;11203;50.870;20.682;2023-03-16T02:16:23;29.58;;;14.77;;
21761;SDS011;11203;50.870;20.682;2023-03-16T02:18:49;28.30;;;16.35;;
21761;SDS011;11203;50.870;20.682;2023-03-16T02:24:03;32.35;;;16.73;;
21761;SDS011;11203;50.870;20.682;2023-03-16T02:29:27;24.13;;;13.60;;
21761;SDS011;11203;50.870;20.682;2023-03-16T02:32:26;30.10;;;15.57;;
21761;SDS011;11203;50.870;20.682;2023-03-16T02:34:55;36.65;;;18.30;;
21761;SDS011;11203;50.870;20.682;2023-03-16T02:37:23;31.80;;;17.65;;
21761;SDS011;11203;50.870;20.682;2023-03-16T02:39:50;32.95;;;18.45;;
21761;SDS011;11203;50.870;20.682;2023-03-16T02:42:18;32.35;;;17.13;;
21761;SDS011;11203;50.870;20.682;2023-03-16T02:44:49;30.25;;;17.67;;
21761;SDS011;11203;50.870;20.682;2023-03-16T02:47:23;35.92;;;18.48;;
21761;SDS011;11203;50.870;20.682;2023-03-16T02:49:57;33.17;;;17.23;;
21761;SDS011;11203;50.870;20.682;2023-03-16T02:52:24;31.73;;;13.80;;
21761;SDS011;11203;50.870;20.682;2023-03-16T02:54:50;31.00;;;18.08;;
21761;SDS011;11203;50.870;20.682;2023-03-16T02:57:16;29.50;;;14.52;;
21761;SDS011;11203;50.870;20.682;2023-03-16T02:59:42;35.75;;;17.38;;
21761;SDS011;11203;50.870;20.682;2023-03-16T03:02:09;33.88;;;18.27;;
21761;SDS011;11203;50.870;20.682;2023-03-16T03:04:35;29.42;;;17.05;;
21761;SDS011;11203;50.870;20.682;2023-03-16T03:07:01;32.53;;;18.77;;
21761;SDS011;11203;50.870;20.682;2023-03-16T03:09:29;33.03;;;19.00;;
21761;SDS011;11203;50.870;20.682;2023-03-16T03:11:57;36.00;;;18.33;;
21761;SDS011;11203;50.870;20.682;2023-03-16T03:14:24;34.08;;;18.90;;
21761;SDS011;11203;50.870;20.682;2023-03-16T03:16:53;35.58;;;17.50;;
21761;SDS011;11203;50.870;20.682;2023-03-16T03:19:19;34.25;;;18.85;;
21761;SDS011;11203;50.870;20.682;2023-03-16T03:21:46;39.05;;;21.20;;
21761;SDS011;11203;50.870;20.682;2023-03-16T03:24:12;37.80;;;20.70;;
21761;SDS011;11203;50.870;20.682;2023-03-16T03:26:38;40.10;;;21.50;;
21761;SDS011;11203;50.870;20.682;2023-03-16T03:29:04;36.17;;;20.83;;
21761;SDS011;11203;50.870;20.682;2023-03-16T03:31:31;39.72;;;21.08;;
21761;SDS011;11203;50.870;20.682;2023-03-16T03:33:56;34.40;;;20.67;;
21761;SDS011;11203;50.870;20.682;2023-03-16T03:36:23;36.13;;;19.75;;
21761;SDS011;11203;50.870;20.682;2023-03-16T03:38:49;37.08;;;20.05;;
21761;SDS011;11203;50.870;20.682;2023-03-16T03:41:15;38.60;;;21.15;;
21761;SDS011;11203;50.870;20.682;2023-03-16T03:43:41;34.65;;;21.30;;
21761;SDS011;11203;50.870;20.682;2023-03-16T03:46:08;41.33;;;22.65;;
21761;SDS011;11203;50.870;20.682;2023-03-16T03:48:34;40.63;;;23.35;;
21761;SDS011;11203;50.870;20.682;2023-03-16T03:51:00;46.25;;;25.45;;
21761;SDS011;11203;50.870;20.682;2023-03-16T03:53:26;45.47;;;25.27;;
21761;SDS011;11203;50.870;20.682;2023-03-16T03:55:53;45.58;;;24.75;;
21761;SDS011;11203;50.870;20.682;2023-03-16T03:58:19;51.88;;;31.05;;
21761;SDS011;11203;50.870;20.682;2023-03-16T04:00:45;47.80;;;28.40;;
21761;SDS011;11203;50.870;20.682;2023-03-16T04:03:13;52.10;;;27.98;;
21761;SDS011;11203;50.870;20.682;2023-03-16T04:05:39;45.90;;;25.20;;
21761;SDS011;11203;50.870;20.682;2023-03-16T04:08:05;49.47;;;26.42;;
21761;SDS011;11203;50.870;20.682;2023-03-16T04:10:31;43.05;;;23.55;;
21761;SDS011;11203;50.870;20.682;2023-03-16T04:12:57;53.17;;;28.65;;
21761;SDS011;11203;50.870;20.682;2023-03-16T04:15:24;49.75;;;28.42;;
21761;SDS011;11203;50.870;20.682;2023-03-16T04:17:51;53.25;;;29.17;;
21761;SDS011;11203;50.870;20.682;2023-03-16T04:20:17;51.30;;;28.70;;
21761;SDS011;11203;50.870;20.682;2023-03-16T04:22:44;54.95;;;30.40;;
21761;SDS011;11203;50.870;20.682;2023-03-16T04:25:12;51.20;;;29.33;;
21761;SDS011;11203;50.870;20.682;2023-03-16T04:27:40;56.67;;;30.42;;
21761;SDS011;11203;50.870;20.682;2023-03-16T04:30:09;39.65;;;22.45;;
21761;SDS011;11203;50.870;20.682;2023-03-16T04:32:40;43.38;;;22.90;;
21761;SDS011;11203;50.870;20.682;2023-03-16T04:35:06;36.28;;;20.38;;
21761;SDS011;11203;50.870;20.682;2023-03-16T04:37:33;37.83;;;20.83;;
21761;SDS011;11203;50.870;20.682;2023-03-16T04:39:59;41.85;;;20.95;;
21761;SDS011;11203;50.870;20.682;2023-03-16T04:42:33;43.17;;;23.88;;
21761;SDS011;11203;50.870;20.682;2023-03-16T04:45:00;40.25;;;22.38;;
21761;SDS011;11203;50.870;20.682;2023-03-16T04:47:26;39.75;;;21.73;;
21761;SDS011;11203;50.870;20.682;2023-03-16T04:49:52;34.03;;;20.40;;
21761;SDS011;11203;50.870;20.682;2023-03-16T04:52:18;49.80;;;25.75;;
21761;SDS011;11203;50.870;20.682;2023-03-16T04:54:44;40.20;;;22.58;;
21761;SDS011;11203;50.870;20.682;2023-03-16T04:57:11;47.55;;;27.10;;
21761;SDS011;11203;50.870;20.682;2023-03-16T04:59:37;47.47;;;28.42;;
21761;SDS011;11203;50.870;20.682;2023-03-16T05:02:03;44.97;;;25.85;;
21761;SDS011;11203;50.870;20.682;2023-03-16T05:04:29;51.83;;;27.15;;
21761;SDS011;11203;50.870;20.682;2023-03-16T05:06:55;50.80;;;30.08;;
21761;SDS011;11203;50.870;20.682;2023-03-16T05:09:21;54.15;;;31.88;;
21761;SDS011;11203;50.870;20.682;2023-03-16T05:11:47;52.70;;;32.13;;
21761;SDS011;11203;50.870;20.682;2023-03-16T05:14:13;176.82;;;97.43;;
21761;SDS011;11203;50.870;20.682;2023-03-16T05:16:40;58.15;;;34.38;;
21761;SDS011;11203;50.870;20.682;2023-03-16T05:19:06;59.65;;;33.53;;
21761;SDS011;11203;50.870;20.682;2023-03-16T05:21:35;55.15;;;32.03;;
21761;SDS011;11203;50.870;20.682;2023-03-16T05:24:06;56.10;;;30.48;;
21761;SDS011;11203;50.870;20.682;2023-03-16T05:26:32;56.80;;;31.45;;
21761;SDS011;11203;50.870;20.682;2023-03-16T05:28:59;61.83;;;30.00;;
21761;SDS011;11203;50.870;20.682;2023-03-16T05:31:29;54.67;;;28.48;;
21761;SDS011;11203;50.870;20.682;2023-03-16T05:33:56;50.67;;;28.42;;
21761;SDS011;11203;50.870;20.682;2023-03-16T05:36:23;50.90;;;28.85;;
21761;SDS011;11203;50.870;20.682;2023-03-16T05:38:50;55.65;;;31.27;;
21761;SDS011;11203;50.870;20.682;2023-03-16T05:41:20;56.35;;;31.35;;
21761;SDS011;11203;50.870;20.682;2023-03-16T05:43:47;60.95;;;33.03;;
21761;SDS011;11203;50.870;20.682;2023-03-16T05:46:13;59.53;;;30.70;;
21761;SDS011;11203;50.870;20.682;2023-03-16T05:48:39;56.38;;;30.40;;
21761;SDS011;11203;50.870;20.682;2023-03-16T05:51:05;53.50;;;29.20;;
21761;SDS011;11203;50.870;20.682;2023-03-16T05:53:31;53.90;;;29.23;;
21761;SDS011;11203;50.870;20.682;2023-03-16T05:55:58;55.13;;;28.77;;
21761;SDS011;11203;50.870;20.682;2023-03-16T05:58:25;55.67;;;30.13;;
21761;SDS011;11203;50.870;20.682;2023-03-16T06:00:52;57.67;;;29.60;;
21761;SDS011;11203;50.870;20.682;2023-03-16T06:03:20;49.72;;;28.75;;
21761;SDS011;11203;50.870;20.682;2023-03-16T06:05:48;52.40;;;28.73;;
21761;SDS011;11203;50.870;20.682;2023-03-16T06:08:14;47.50;;;28.63;;
21761;SDS011;11203;50.870;20.682;2023-03-16T06:10:45;52.92;;;30.70;;
21761;SDS011;11203;50.870;20.682;2023-03-16T06:13:12;59.58;;;31.55;;
21761;SDS011;11203;50.870;20.682;2023-03-16T06:15:38;51.28;;;29.00;;
21761;SDS011;11203;50.870;20.682;2023-03-16T06:18:04;58.50;;;31.92;;
21761;SDS011;11203;50.870;20.682;2023-03-16T06:20:30;50.58;;;28.42;;
21761;SDS011;11203;50.870;20.682;2023-03-16T06:22:57;55.13;;;29.35;;
21761;SDS011;11203;50.870;20.682;2023-03-16T06:25:23;43.50;;;22.13;;
21761;SDS011;11203;50.870;20.682;2023-03-16T06:27:49;23.90;;;14.43;;
21761;SDS011;11203;50.870;20.682;2023-03-16T06:30:15;38.75;;;19.45;;
21761;SDS011;11203;50.870;20.682;2023-03-16T06:32:42;51.08;;;27.73;;
21761;SDS011;11203;50.870;20.682;2023-03-16T06:35:10;33.58;;;15.30;;
21761;SDS011;11203;50.870;20.682;2023-03-16T06:37:36;28.08;;;12.60;;
21761;SDS011;11203;50.870;20.682;2023-03-16T06:40:03;31.92;;;14.90;;
21761;SDS011;11203;50.870;20.682;2023-03-16T06:42:29;46.47;;;24.33;;
21761;SDS011;11203;50.870;20.682;2023-03-16T06:44:56;35.85;;;17.10;;
21761;SDS011;11203;50.870;20.682;2023-03-16T06:47:22;45.45;;;24.52;;
21761;SDS011;11203;50.870;20.682;2023-03-16T06:49:48;48.30;;;24.27;;
21761;SDS011;11203;50.870;20.682;2023-03-16T06:52:15;41.20;;;25.05;;
21761;SDS011;11203;50.870;20.682;2023-03-16T06:54:42;48.42;;;28.05;;
21761;SDS011;11203;50.870;20.682;2023-03-16T06:57:08;51.08;;;30.38;;
21761;SDS011;11203;50.870;20.682;2023-03-16T06:59:34;31.67;;;17.60;;
21761;SDS011;11203;50.870;20.682;2023-03-16T07:02:00;42.88;;;24.48;;
21761;SDS011;11203;50.870;20.682;2023-03-16T07:04:26;47.25;;;23.35;;
21761;SDS011;11203;50.870;20.682;2023-03-16T07:06:53;39.00;;;22.45;;
21761;SDS011;11203;50.870;20.682;2023-03-16T07:09:20;36.58;;;23.25;;
21761;SDS011;11203;50.870;20.682;2023-03-16T07:11:46;39.30;;;23.45;;
21761;SDS011;11203;50.870;20.682;2023-03-16T07:14:15;34.40;;;17.63;;
21761;SDS011;11203;50.870;20.682;2023-03-16T07:16:44;43.72;;;24.48;;
21761;SDS011;11203;50.870;20.682;2023-03-16T07:19:11;36.55;;;21.58;;
21761;SDS011;11203;50.870;20.682;2023-03-16T07:21:40;41.13;;;26.45;;
21761;SDS011;11203;50.870;20.682;2023-03-16T07:24:07;42.70;;;21.20;;
21761;SDS011;11203;50.870;20.682;2023-03-16T07:26:35;38.30;;;23.90;;
21761;SDS011;11203;50.870;20.682;2023-03-16T07:29:03;38.90;;;24.58;;
21761;SDS011;11203;50.870;20.682;2023-03-16T07:31:31;40.88;;;24.42;;
21761;SDS011;11203;50.870;20.682;2023-03-16T07:34:02;31.50;;;16.70;;
21761;SDS011;11203;50.870;20.682;2023-03-16T07:36:32;26.08;;;14.57;;
21761;SDS011;11203;50.870;20.682;2023-03-16T07:38:59;35.10;;;17.52;;
21761;SDS011;11203;50.870;20.682;2023-03-16T07:41:25;14.25;;;6.95;;
21761;SDS011;11203;50.870;20.682;2023-03-16T07:43:52;40.72;;;22.52;;
21761;SDS011;11203;50.870;20.682;2023-03-16T07:46:19;34.28;;;17.38;;
21761;SDS011;11203;50.870;20.682;2023-03-16T07:48:46;43.60;;;24.63;;
21761;SDS011;11203;50.870;20.682;2023-03-16T07:51:12;21.35;;;10.57;;
21761;SDS011;11203;50.870;20.682;2023-03-16T07:53:40;32.33;;;19.83;;
21761;SDS011;11203;50.870;20.682;2023-03-16T07:56:08;33.10;;;19.73;;
21761;SDS011;11203;50.870;20.682;2023-03-16T07:58:34;45.17;;;26.85;;
21761;SDS011;11203;50.870;20.682;2023-03-16T08:01:02;31.40;;;17.08;;
21761;SDS011;11203;50.870;20.682;2023-03-16T08:03:28;27.63;;;16.50;;
21761;SDS011;11203;50.870;20.682;2023-03-16T08:05:56;45.42;;;27.08;;
21761;SDS011;11203;50.870;20.682;2023-03-16T08:08:24;24.60;;;12.18;;
21761;SDS011;11203;50.870;20.682;2023-03-16T08:10:51;36.85;;;21.25;;
21761;SDS011;11203;50.870;20.682;2023-03-16T08:13:18;13.98;;;7.75;;
21761;SDS011;11203;50.870;20.682;2023-03-16T08:15:47;23.55;;;12.88;;
21761;SDS011;11203;50.870;20.682;2023-03-16T08:18:23;36.85;;;20.38;;
21761;SDS011;11203;50.870;20.682;2023-03-16T08:20:51;28.50;;;17.55;;
21761;SDS011;11203;50.870;20.682;2023-03-16T08:23:22;21.20;;;12.40;;
21761;SDS011;11203;50.870;20.682;2023-03-16T08:25:50;35.28;;;16.15;;
21761;SDS011;11203;50.870;20.682;2023-03-16T08:28:22;35.17;;;18.50;;
21761;SDS011;11203;50.870;20.682;2023-03-16T08:30:50;27.60;;;14.60;;
21761;SDS011;11203;50.870;20.682;2023-03-16T08:33:20;19.38;;;11.07;;
21761;SDS011;11203;50.870;20.682;2023-03-16T08:35:46;25.58;;;14.75;;
21761;SDS011;11203;50.870;20.682;2023-03-16T08:38:14;22.73;;;13.50;;
21761;SDS011;11203;50.870;20.682;2023-03-16T08:40:40;13.13;;;5.13;;
21761;SDS011;11203;50.870;20.682;2023-03-16T08:43:18;14.98;;;9.02;;
21761;SDS011;11203;50.870;20.682;2023-03-16T08:45:45;23.27;;;13.80;;
21761;SDS011;11203;50.870;20.682;2023-03-16T08:48:13;24.83;;;13.10;;
21761;SDS011;11203;50.870;20.682;2023-03-16T08:50:40;20.08;;;10.20;;
21761;SDS011;11203;50.870;20.682;2023-03-16T08:53:09;19.50;;;11.55;;
21761;SDS011;11203;50.870;20.682;2023-03-16T08:55:38;22.27;;;12.43;;
21761;SDS011;11203;50.870;20.682;2023-03-16T08:58:10;9.10;;;3.25;;
21761;SDS011;11203;50.870;20.682;2023-03-16T09:00:38;13.82;;;7.13;;
21761;SDS011;11203;50.870;20.682;2023-03-16T09:03:06;12.43;;;6.35;;
21761;SDS011;11203;50.870;20.682;2023-03-16T09:05:32;6.05;;;3.20;;
21761;SDS011;11203;50.870;20.682;2023-03-16T09:08:04;16.25;;;7.80;;
21761;SDS011;11203;50.870;20.682;2023-03-16T09:10:30;17.42;;;7.28;;
21761;SDS011;11203;50.870;20.682;2023-03-16T09:12:57;16.70;;;9.20;;
21761;SDS011;11203;50.870;20.682;2023-03-16T09:15:25;14.48;;;7.55;;
21761;SDS011;11203;50.870;20.682;2023-03-16T09:17:53;9.70;;;5.80;;
21761;SDS011;11203;50.870;20.682;2023-03-16T09:20:21;10.80;;;4.78;;
21761;SDS011;11203;50.870;20.682;2023-03-16T09:22:50;9.85;;;6.03;;
21761;SDS011;11203;50.870;20.682;2023-03-16T09:25:17;12.50;;;5.85;;
21761;SDS011;11203;50.870;20.682;2023-03-16T09:27:47;11.98;;;6.22;;
21761;SDS011;11203;50.870;20.682;2023-03-16T09:30:15;9.10;;;3.42;;
21761;SDS011;11203;50.870;20.682;2023-03-16T09:32:43;10.60;;;5.05;;
21761;SDS011;11203;50.870;20.682;2023-03-16T09:35:13;9.50;;;5.45;;
21761;SDS011;11203;50.870;20.682;2023-03-16T09:37:40;5.63;;;2.83;;
21761;SDS011;11203;50.870;20.682;2023-03-16T09:40:06;11.48;;;6.80;;
21761;SDS011;11203;50.870;20.682;2023-03-16T09:42:51;15.93;;;7.28;;
21761;SDS011;11203;50.870;20.682;2023-03-16T09:46:10;12.73;;;4.57;;
21761;SDS011;11203;50.870;20.682;2023-03-16T09:48:40;6.60;;;3.40;;
21761;SDS011;11203;50.870;20.682;2023-03-16T09:51:11;5.45;;;3.20;;
21761;SDS011;11203;50.870;20.682;2023-03-16T09:53:46;12.93;;;6.20;;
21761;SDS011;11203;50.870;20.682;2023-03-16T09:56:24;8.52;;;3.92;;
21761;SDS011;11203;50.870;20.682;2023-03-16T09:58:57;4.75;;;2.35;;
21761;SDS011;11203;50.870;20.682;2023-03-16T10:13:33;6.47;;;3.72;;
21761;SDS011;11203;50.870;20.682;2023-03-16T10:16:20;6.45;;;3.42;;
21761;SDS011;11203;50.870;20.682;2023-03-16T10:21:46;5.28;;;2.55;;
21761;SDS011;11203;50.870;20.682;2023-03-16T10:24:18;6.15;;;3.22;;
21761;SDS011;11203;50.870;20.682;2023-03-16T10:27:18;4.18;;;2.78;;
21761;SDS011;11203;50.870;20.682;2023-03-16T10:29:53;6.40;;;2.90;;
21761;SDS011;11203;50.870;20.682;2023-03-16T10:32:23;11.52;;;5.68;;
21761;SDS011;11203;50.870;20.682;2023-03-16T10:34:59;10.10;;;4.03;;
21761;SDS011;11203;50.870;20.682;2023-03-16T10:37:41;4.88;;;2.85;;
21761;SDS011;11203;50.870;20.682;2023-03-16T10:40:09;6.15;;;3.78;;
21761;SDS011;11203;50.870;20.682;2023-03-16T10:42:37;6.85;;;4.05;;
21761;SDS011;11203;50.870;20.682;2023-03-16T10:45:04;11.38;;;5.95;;
21761;SDS011;11203;50.870;20.682;2023-03-16T10:47:32;7.10;;;2.40;;
21761;SDS011;11203;50.870;20.682;2023-03-16T10:49:58;3.17;;;2.17;;
21761;SDS011;11203;50.870;20.682;2023-03-16T10:52:39;8.00;;;3.17;;
21761;SDS011;11203;50.870;20.682;2023-03-16T10:55:18;13.07;;;3.38;;
21761;SDS011;11203;50.870;20.682;2023-03-16T10:57:50;5.55;;;2.88;;
21761;SDS011;11203;50.870;20.682;2023-03-16T11:00:20;7.28;;;4.50;;
21761;SDS011;11203;50.870;20.682;2023-03-16T11:02:54;6.43;;;2.83;;
21761;SDS011;11203;50.870;20.682;2023-03-16T11:08:10;4.55;;;2.05;;
21761;SDS011;11203;50.870;20.682;2023-03-16T11:10:46;6.95;;;3.15;;
21761;SDS011;11203;50.870;20.682;2023-03-16T11:13:23;5.18;;;3.03;;
21761;SDS011;11203;50.870;20.682;2023-03-16T11:21:37;2.38;;;1.73;;
21761;SDS011;11203;50.870;20.682;2023-03-16T11:33:31;3.53;;;2.03;;
21761;SDS011;11203;50.870;20.682;2023-03-16T11:41:26;7.28;;;4.32;;
21761;SDS011;11203;50.870;20.682;2023-03-16T11:44:08;9.40;;;3.97;;
21761;SDS011;11203;50.870;20.682;2023-03-16T12:12:35;8.48;;;4.20;;
21761;SDS011;11203;50.870;20.682;2023-03-16T12:18:17;4.47;;;3.13;;
21761;SDS011;11203;50.870;20.682;2023-03-16T12:21:02;11.98;;;5.95;;
21761;SDS011;11203;50.870;20.682;2023-03-16T12:23:35;5.32;;;2.50;;
21761;SDS011;11203;50.870;20.682;2023-03-16T12:26:14;4.78;;;2.67;;
21761;SDS011;11203;50.870;20.682;2023-03-16T12:28:42;4.03;;;2.53;;
21761;SDS011;11203;50.870;20.682;2023-03-16T12:36:54;4.68;;;2.90;;
21761;SDS011;11203;50.870;20.682;2023-03-16T12:45:32;6.50;;;3.05;;
21761;SDS011;11203;50.870;20.682;2023-03-16T12:48:40;8.07;;;2.72;;
21761;SDS011;11203;50.870;20.682;2023-03-16T12:51:14;5.50;;;3.20;;
21761;SDS011;11203;50.870;20.682;2023-03-16T12:53:46;5.75;;;2.65;;
21761;SDS011;11203;50.870;20.682;2023-03-16T12:56:30;6.60;;;3.78;;
21761;SDS011;11203;50.870;20.682;2023-03-16T12:59:01;10.27;;;4.63;;
21761;SDS011;11203;50.870;20.682;2023-03-16T13:01:40;6.35;;;2.78;;
21761;SDS011;11203;50.870;20.682;2023-03-16T13:04:11;6.03;;;3.33;;
21761;SDS011;11203;50.870;20.682;2023-03-16T13:06:45;6.95;;;2.83;;
21761;SDS011;11203;50.870;20.682;2023-03-16T13:09:19;4.97;;;3.42;;
21761;SDS011;11203;50.870;20.682;2023-03-16T13:11:52;7.90;;;4.00;;
21761;SDS011;11203;50.870;20.682;2023-03-16T13:14:33;3.45;;;2.22;;
21761;SDS011;11203;50.870;20.682;2023-03-16T13:19:40;5.93;;;3.15;;
21761;SDS011;11203;50.870;20.682;2023-03-16T13:24:57;6.25;;;2.80;;
21761;SDS011;11203;50.870;20.682;2023-03-16T13:27:48;4.32;;;2.38;;
21761;SDS011;11203;50.870;20.682;2023-03-16T13:30:30;6.22;;;2.45;;
21761;SDS011;11203;50.870;20.682;2023-03-16T13:32:59;5.28;;;3.15;;
21761;SDS011;11203;50.870;20.682;2023-03-16T13:35:51;5.47;;;2.30;;
21761;SDS011;11203;50.870;20.682;2023-03-16T13:38:21;6.57;;;2.58;;
21761;SDS011;11203;50.870;20.682;2023-03-16T13:41:04;5.20;;;2.97;;
21761;SDS011;11203;50.870;20.682;2023-03-16T13:43:41;4.00;;;1.77;;
21761;SDS011;11203;50.870;20.682;2023-03-16T13:46:16;5.97;;;3.38;;
21761;SDS011;11203;50.870;20.682;2023-03-16T13:48:51;6.50;;;3.80;;
21761;SDS011;11203;50.870;20.682;2023-03-16T13:51:20;6.50;;;2.33;;
21761;SDS011;11203;50.870;20.682;2023-03-16T13:53:48;4.28;;;2.45;;
21761;SDS011;11203;50.870;20.682;2023-03-16T13:56:21;9.25;;;4.22;;
21761;SDS011;11203;50.870;20.682;2023-03-16T13:58:53;8.18;;;3.05;;
21761;SDS011;11203;50.870;20.682;2023-03-16T14:01:26;10.70;;;4.88;;
21761;SDS011;11203;50.870;20.682;2023-03-16T14:04:00;7.32;;;3.70;;
21761;SDS011;11203;50.870;20.682;2023-03-16T14:06:33;4.45;;;2.47;;
21761;SDS011;11203;50.870;20.682;2023-03-16T14:09:01;7.75;;;3.13;;
21761;SDS011;11203;50.870;20.682;2023-03-16T14:11:37;15.85;;;5.03;;
21761;SDS011;11203;50.870;20.682;2023-03-16T14:14:11;7.35;;;3.55;;
21761;SDS011;11203;50.870;20.682;2023-03-16T14:16:41;3.15;;;1.67;;
21761;SDS011;11203;50.870;20.682;2023-03-16T14:22:01;5.38;;;2.80;;
21761;SDS011;11203;50.870;20.682;2023-03-16T14:24:32;9.15;;;4.18;;
21761;SDS011;11203;50.870;20.682;2023-03-16T14:30:16;4.63;;;2.00;;
21761;SDS011;11203;50.870;20.682;2023-03-16T14:32:58;2.92;;;1.90;;
21761;SDS011;11203;50.870;20.682;2023-03-16T14:35:58;5.47;;;2.33;;
21761;SDS011;11203;50.870;20.682;2023-03-16T14:38:36;3.67;;;1.95;;
21761;SDS011;11203;50.870;20.682;2023-03-16T14:43:44;8.10;;;3.42;;
21761;SDS011;11203;50.870;20.682;2023-03-16T14:46:14;7.38;;;4.10;;
21761;SDS011;11203;50.870;20.682;2023-03-16T14:49:00;6.88;;;3.13;;
21761;SDS011;11203;50.870;20.682;2023-03-16T14:51:35;12.73;;;4.75;;
21761;SDS011;11203;50.870;20.682;2023-03-16T14:54:09;11.18;;;3.70;;
21761;SDS011;11203;50.870;20.682;2023-03-16T14:56:41;5.18;;;2.22;;
21761;SDS011;11203;50.870;20.682;2023-03-16T14:59:12;7.00;;;2.67;;
21761;SDS011;11203;50.870;20.682;2023-03-16T15:01:38;8.35;;;4.47;;
21761;SDS011;11203;50.870;20.682;2023-03-16T15:04:04;10.95;;;5.18;;
21761;SDS011;11203;50.870;20.682;2023-03-16T15:06:31;5.88;;;2.70;;
21761;SDS011;11203;50.870;20.682;2023-03-16T15:08:58;10.90;;;3.88;;
21761;SDS011;11203;50.870;20.682;2023-03-16T15:11:27;7.63;;;2.35;;
21761;SDS011;11203;50.870;20.682;2023-03-16T15:13:53;9.88;;;3.88;;
21761;SDS011;11203;50.870;20.682;2023-03-16T15:16:28;12.23;;;5.50;;
21761;SDS011;11203;50.870;20.682;2023-03-16T15:18:55;16.17;;;6.85;;
21761;SDS011;11203;50.870;20.682;2023-03-16T15:21:21;11.60;;;5.45;;
21761;SDS011;11203;50.870;20.682;2023-03-16T15:23:54;5.75;;;2.85;;
21761;SDS011;11203;50.870;20.682;2023-03-16T15:26:23;9.40;;;4.30;;
21761;SDS011;11203;50.870;20.682;2023-03-16T15:28:52;11.75;;;4.82;;
21761;SDS011;11203;50.870;20.682;2023-03-16T15:31:20;4.95;;;2.55;;
21761;SDS011;11203;50.870;20.682;2023-03-16T15:33:46;7.60;;;2.72;;
21761;SDS011;11203;50.870;20.682;2023-03-16T15:36:13;3.55;;;2.00;;
21761;SDS011;11203;50.870;20.682;2023-03-16T15:38:44;15.95;;;5.78;;
21761;SDS011;11203;50.870;20.682;2023-03-16T15:41:12;7.45;;;2.92;;
21761;SDS011;11203;50.870;20.682;2023-03-16T15:43:39;7.07;;;3.38;;
21761;SDS011;11203;50.870;20.682;2023-03-16T15:46:06;12.43;;;5.38;;
21761;SDS011;11203;50.870;20.682;2023-03-16T15:48:32;18.23;;;3.80;;
21761;SDS011;11203;50.870;20.682;2023-03-16T15:50:59;10.45;;;3.60;;
21761;SDS011;11203;50.870;20.682;2023-03-16T15:53:39;11.02;;;3.92;;
21761;SDS011;11203;50.870;20.682;2023-03-16T15:56:14;11.68;;;3.65;;
21761;SDS011;11203;50.870;20.682;2023-03-16T15:58:46;8.55;;;3.75;;
21761;SDS011;11203;50.870;20.682;2023-03-16T16:03:48;10.68;;;3.50;;
21761;SDS011;11203;50.870;20.682;2023-03-16T16:06:15;9.40;;;3.15;;
21761;SDS011;11203;50.870;20.682;2023-03-16T16:08:44;5.53;;;3.20;;
21761;SDS011;11203;50.870;20.682;2023-03-16T16:11:24;7.55;;;3.97;;
21761;SDS011;11203;50.870;20.682;2023-03-16T16:13:56;6.38;;;2.95;;
21761;SDS011;11203;50.870;20.682;2023-03-16T16:16:25;6.72;;;3.90;;
21761;SDS011;11203;50.870;20.682;2023-03-16T16:18:53;12.27;;;4.45;;
21761;SDS011;11203;50.870;20.682;2023-03-16T16:21:24;7.55;;;3.00;;